Latest Weather Observations for Tunnack

IDT60801

Issued at 6:31 am EST Sunday 19 April 2015 (issued every 30 minutes, with the page automatically refreshed every 10 minutes)

About weather observations | Map of weather stations | Latest weather observations for TAS | Other Formats
Station Details ID: 094195 Name: TUNNACK FIRE STATION Lat: -42.45 Lon: 147.46 Height: 461.5 m
Data from the previous 72 hours. | See also: Recent months at Tunnack
Date/Time
EST
Temp
°C
App
Temp
°C
Dew
Point
Rel
Hum
%
Delta-T
°C
Wind Press
QNH
hPa
Press
MSL
hPa
Rain
since 9 am
mm
Dir
 
Spd
km/h
Gust
km/h
Spd
kts
Gust
kts
19/06:30am 3.9 -1.4 3.2 95 0.3 WSW 20 26 11 14 1018.5 1018.6 1.0
19/06:00am 3.9 0.0 3.5 97 0.2 SSW 13 20 7 11 1017.9 1018.0 1.0
19/05:30am 4.2 -1.0 3.6 96 0.3 SSW 20 26 11 14 1017.2 1017.3 1.0
19/05:00am 5.1 -0.9 3.3 88 0.8 SSW 24 39 13 21 1016.5 1016.6 0.2
19/04:30am 5.3 0.7 3.5 88 0.8 SW 17 26 9 14 1015.4 1015.5 0.0
19/04:00am 5.8 1.1 3.3 84 1.1 SW 17 26 9 14 1014.5 1014.6 0.0
19/03:30am 5.6 0.5 3.3 85 1.0 WSW 19 26 10 14 1013.6 1013.7 0.0
19/03:00am 5.6 1.0 3.6 87 0.9 WSW 17 24 9 13 1013.1 1013.1 0.0
19/02:30am 5.0 1.0 3.0 87 0.8 WSW 13 19 7 10 1012.7 1012.7 0.0
19/02:00am 5.5 2.3 3.2 85 1.0 W 9 15 5 8 1012.5 1012.5 0.0
19/01:30am 5.1 1.9 2.8 85 1.0 SW 9 13 5 7 1012.2 1012.3 0.0
19/01:00am 5.0 1.4 2.9 86 0.9 W 11 13 6 7 1011.8 1011.9 0.0
19/12:30am 4.5 0.3 1.5 81 1.2 WNW 13 17 7 9 1011.3 1011.3 0.0
19/12:00am 5.1 1.7 1.9 80 1.3 NW 9 11 5 6 1011.0 1011.0 0.0
 
Date/Time
EST
Temp
°C
App
Temp
°C
Dew
Point
Rel
Hum
%
Delta-T
°C
Wind Press
QNH
hPa
Press
MSL
hPa
Rain
since 9 am
mm
Dir
 
Spd
km/h
Gust
km/h
Spd
kts
Gust
kts
18/11:30pm 6.4 3.1 2.5 76 1.7 W 9 13 5 7 1010.8 1010.8 0.0
18/11:00pm 6.5 3.2 2.4 75 1.7 WSW 9 13 5 7 1010.4 1010.4 0.0
18/10:30pm 6.7 4.0 2.8 76 1.7 S 6 15 3 8 1010.0 1010.1 0.0
18/10:00pm 6.8 2.7 2.5 74 1.8 WSW 13 19 7 10 1009.6 1009.7 0.0
18/09:30pm 7.0 3.4 2.9 75 1.8 SW 11 15 6 8 1009.0 1009.0 0.0
18/09:00pm 7.4 3.9 3.3 75 1.8 WSW 11 20 6 11 1008.6 1008.6 0.0
18/08:30pm 7.7 3.8 3.6 75 1.8 WSW 13 20 7 11 1008.3 1008.3 0.0
18/08:00pm 8.2 3.6 3.7 73 2.0 W 17 30 9 16 1007.9 1007.9 0.0
18/07:30pm 8.3 3.8 4.3 76 1.8 W 17 24 9 13 1007.0 1007.0 0.0
18/07:00pm 8.3 3.3 4.5 77 1.7 W 20 30 11 16 1006.4 1006.4 0.0
18/06:30pm 8.5 3.4 3.9 73 2.1 W 20 39 11 21 1006.5 1006.5 0.0
18/06:00pm 9.0 4.4 3.8 70 2.3 W 17 24 9 13 1006.4 1006.4 0.0
18/05:30pm 9.5 5.1 4.5 71 2.3 WSW 17 24 9 13 1005.9 1005.8 0.0
18/05:00pm 9.6 5.0 5.4 75 2.0 W 19 26 10 14 1005.8 1005.7 0.0
18/04:30pm 10.2 3.9 5.8 74 2.1 WSW 28 50 15 27 1004.6 1004.6 0.0
18/04:13pm 12.1 5.0 6.2 67 2.9 WNW 33 59 18 32 1003.6 1003.5 0.0
18/04:09pm 14.2 7.8 7.0 62 3.6 NW 30 59 16 32 1002.9 1002.9 0.0
18/04:00pm 15.2 9.6 7.2 59 4.1 NW 26 37 14 20 1002.8 1002.8 0.0
18/03:43pm 15.5 9.4 6.5 55 4.5 NW 28 46 15 25 1002.6 1002.6 0.0
18/03:30pm 15.9 10.1 6.3 53 4.8 NW 26 41 14 22 1002.6 1002.6 0.0
18/03:00pm 16.5 8.9 5.8 49 5.3 NW 35 44 19 24 1002.2 1002.2 0.0
18/02:34pm 17.4 10.8 6.0 47 5.7 NW 30 50 16 27 1002.4 1002.4 0.0
18/02:30pm 17.5 10.5 6.1 47 5.7 NW 32 44 17 24 1002.3 1002.3 0.0
18/02:00pm 17.6 8.6 4.5 42 6.4 WNW 41 54 22 29 1002.5 1002.5 0.0
18/01:30pm 18.2 8.7 4.0 39 6.9 WNW 43 63 23 34 1002.7 1002.7 0.0
18/01:04pm 17.7 8.6 3.9 40 6.6 NW 41 59 22 32 1003.1 1003.1 0.0
18/01:00pm 17.6 8.6 2.4 36 7.1 NW 39 50 21 27 1003.3 1003.2 0.0
18/12:30pm 17.7 8.9 1.2 33 7.5 WNW 37 56 20 30 1003.7 1003.6 0.0
18/12:13pm 17.8 10.0 1.7 34 7.4 WNW 32 50 17 27 1003.9 1003.8 0.0
18/12:00pm 17.7 10.2 1.2 33 7.5 WNW 30 46 16 25 1004.1 1004.1 0.0
18/11:30am 16.9 8.5 1.4 35 7.0 NW 35 48 19 26 1004.6 1004.6 0.0
18/11:00am 15.0 8.9 6.8 58 4.1 NNW 28 37 15 20 1004.9 1004.9 0.0
18/10:30am 13.8 8.5 6.9 63 3.4 N 24 30 13 16 1005.6 1005.5 0.0
18/10:00am 13.3 8.3 6.6 64 3.3 N 22 32 12 17 1006.0 1006.0 0.0
18/09:30am 12.3 7.8 6.8 69 2.7 N 20 30 11 16 1006.5 1006.5 0.0
18/09:00am 11.5 7.7 7.6 77 1.9 N 17 26 9 14 1007.2 1007.2 0.0
18/08:30am 10.2 6.1 8.0 86 1.1 NNW 19 24 10 13 1007.5 1007.5 0.0
18/08:00am 9.4 5.3 7.8 90 0.8 N 19 24 10 13 1007.4 1007.4 0.0
18/07:30am 8.1 4.3 7.5 96 0.3 NNW 17 22 9 12 1007.3 1007.3 0.0
18/07:00am 8.2 3.9 7.8 97 0.2 NNW 20 26 11 14 1007.1 1007.1 0.0
18/06:30am 8.2 4.5 7.9 98 0.1 N 17 24 9 13 1006.9 1006.9 0.0
18/06:00am 8.7 4.1 8.3 97 0.2 N 22 30 12 16 1007.0 1007.0 0.0
18/05:30am 8.5 4.3 8.1 97 0.2 N 20 26 11 14 1006.9 1006.9 0.0
18/05:00am 8.8 3.0 7.9 94 0.4 N 28 37 15 20 1007.0 1007.0 0.0
18/04:30am 8.7 3.2 7.5 92 0.6 N 26 35 14 19 1007.0 1007.0 0.0
18/04:00am 9.0 2.3 7.3 89 0.8 N 32 43 17 23 1007.0 1007.0 0.0
18/03:30am 9.5 3.6 7.3 86 1.1 N 28 39 15 21 1006.9 1006.9 0.0
18/03:00am 9.6 2.4 7.7 88 0.9 N 35 50 19 27 1007.5 1007.5 0.0
18/02:52am 9.5 2.9 7.6 88 0.9 N 32 50 17 27 1007.6 1007.6 0.0
18/02:30am 9.5 3.7 7.8 89 0.8 N 28 39 15 21 1008.2 1008.2 0.0
18/02:00am 9.5 3.4 8.1 91 0.7 N 30 39 16 21 1009.1 1009.1 0.0
18/01:30am 9.5 3.0 8.3 92 0.6 N 32 44 17 24 1009.6 1009.7 0.0
18/01:00am 9.6 3.1 8.2 91 0.7 N 32 41 17 22 1010.2 1010.2 0.0
18/12:30am 9.7 3.6 8.3 91 0.7 NNW 30 43 16 23 1010.8 1010.8 0.0
18/12:00am 9.6 5.6 8.4 92 0.6 N 19 33 10 18 1011.1 1011.1 0.0
 
Date/Time
EST
Temp
°C
App
Temp
°C
Dew
Point
Rel
Hum
%
Delta-T
°C
Wind Press
QNH
hPa
Press
MSL
hPa
Rain
since 9 am
mm
Dir
 
Spd
km/h
Gust
km/h
Spd
kts
Gust
kts
17/11:30pm 9.8 5.8 8.9 94 0.5 NNE 20 32 11 17 1011.9 1012.0 0.0
17/11:00pm 9.4 4.9 8.6 95 0.4 N 22 35 12 19 1012.1 1012.2 0.0
17/10:30pm 9.3 3.3 8.8 97 0.3 N 30 46 16 25 1012.6 1012.6 0.0
17/10:00pm 9.0 2.0 8.4 96 0.3 N 35 50 19 27 1012.8 1012.8 0.0
17/09:30pm 9.1 3.0 8.2 94 0.4 N 30 43 16 23 1013.3 1013.4 0.0
17/09:00pm 9.2 3.4 8.0 92 0.6 N 28 39 15 21 1013.4 1013.5 0.0
17/08:30pm 9.3 5.1 8.1 92 0.6 N 20 30 11 16 1013.6 1013.7 0.0
17/08:00pm 9.4 5.1 7.8 90 0.8 N 20 28 11 15 1013.9 1014.0 0.0
17/07:30pm 9.7 5.1 8.0 89 0.8 N 22 28 12 15 1013.9 1014.0 0.0
17/07:00pm 10.2 5.2 8.0 86 1.1 N 24 33 13 18 1014.1 1014.2 0.0
17/06:30pm 10.5 6.4 7.7 83 1.4 N 19 26 10 14 1014.0 1014.1 0.0
17/06:00pm 11.1 6.0 7.6 79 1.7 N 24 32 13 17 1014.2 1014.3 0.0
17/05:30pm 11.9 6.7 7.4 74 2.2 N 24 33 13 18 1014.0 1014.1 0.0
17/05:00pm 12.7 7.5 7.4 70 2.6 N 24 33 13 18 1014.1 1014.2 0.0
17/04:30pm 13.6 7.3 7.2 65 3.2 N 30 41 16 22 1014.3 1014.4 0.0
17/04:00pm 13.9 7.9 7.0 63 3.4 N 28 39 15 21 1014.5 1014.6 0.0
17/03:30pm 15.4 11.0 7.4 59 4.1 N 20 32 11 17 1015.1 1015.1 0.0
17/03:00pm 14.6 8.9 6.7 59 3.9 N 26 35 14 19 1015.3 1015.4 0.0
17/02:30pm 15.2 9.2 7.0 58 4.1 N 28 39 15 21 1015.4 1015.5 0.0
17/02:00pm 14.9 8.4 6.7 58 4.1 N 30 41 16 22 1015.6 1015.7 0.0
17/01:30pm 14.8 8.8 7.1 60 3.9 N 28 35 15 19 1016.1 1016.2 0.0
17/01:00pm 14.2 8.2 7.0 62 3.6 N 28 39 15 21 1016.8 1016.9 0.0
17/12:30pm 13.6 8.1 7.4 66 3.1 N 26 33 14 18 1017.4 1017.5 0.0
17/12:00pm 13.5 7.8 6.8 64 3.3 N 26 35 14 19 1018.1 1018.2 0.0
17/11:30am 13.8 9.0 7.3 65 3.3 N 22 32 12 17 1018.7 1018.8 0.0
17/11:00am 14.0 9.8 7.3 64 3.4 N 19 26 10 14 1019.0 1019.2 0.0
17/10:30am 13.2 8.5 5.9 61 3.5 NNW 20 28 11 15 1019.3 1019.4 0.0
17/10:00am 12.7 8.2 6.3 65 3.1 NNW 19 28 10 15 1019.7 1019.8 0.0
17/09:30am 11.8 7.8 6.5 70 2.6 NNW 17 24 9 13 1020.1 1020.2 0.0
17/09:00am 11.1 7.0 6.3 72 2.3 NNW 17 24 9 13 1020.5 1020.6 0.0
17/08:30am 9.0 5.7 6.3 83 1.3 NNW 13 20 7 11 1020.9 1021.1 0.0
17/08:00am 8.3 5.7 6.1 86 1.0 NW 9 19 5 10 1020.7 1020.9 0.0
17/07:30am 6.1 3.7 5.2 94 0.4 N 7 11 4 6 1020.8 1021.0 0.0
17/07:00am 4.4 1.6 3.1 91 0.5 NNE 7 9 4 5 1020.5 1020.6 0.0
17/06:30am 5.5 3.9 4.3 92 0.5 NE 2 6 1 3 1020.4 1020.5 0.0
17/06:00am 5.8 3.4 4.3 90 0.7 ESE 6 11 3 6 1020.2 1020.3 0.0
17/05:30am 6.3 4.2 4.0 85 1.0 NE 4 9 2 5 1019.9 1020.0 0.0
17/05:00am 7.7 4.1 5.0 83 1.2 NNW 13 17 7 9 1020.0 1020.1 0.0
17/04:30am 9.3 5.6 6.2 81 1.5 NW 15 19 8 10 1019.9 1020.0 0.0
17/04:00am 9.8 5.4 6.5 80 1.6 WNW 19 26 10 14 1019.8 1019.9 0.0
17/03:30am 9.0 4.7 5.2 77 1.8 WNW 17 19 9 10 1019.6 1019.7 0.0
17/03:00am 9.7 5.5 5.5 75 2.0 WNW 17 20 9 11 1019.5 1019.6 0.0
17/02:30am 9.8 5.9 5.4 74 2.1 W 15 26 8 14 1019.9 1020.0 0.0
17/02:00am 10.2 6.6 4.8 69 2.5 WNW 13 24 7 13 1020.1 1020.2 0.0
17/01:30am 10.2 5.8 5.0 70 2.4 NW 17 24 9 13 1020.1 1020.2 0.0
17/01:00am 9.8 6.2 5.0 72 2.2 NW 13 17 7 9 1020.3 1020.4 0.0
17/12:30am 10.0 7.2 5.2 72 2.2 NW 9 11 5 6 1020.8 1021.0 0.0
17/12:00am 10.0 6.9 5.4 73 2.1 NNW 11 15 6 8 1020.6 1020.7 0.0
 
Date/Time
EST
Temp
°C
App
Temp
°C
Dew
Point
Rel
Hum
%
Delta-T
°C
Wind Press
QNH
hPa
Press
MSL
hPa
Rain
since 9 am
mm
Dir
 
Spd
km/h
Gust
km/h
Spd
kts
Gust
kts
16/11:30pm 9.9 5.3 5.5 74 2.1 NW 19 26 10 14 1020.9 1021.1 0.0
16/11:00pm 9.7 4.5 5.3 74 2.0 NW 22 30 12 16 1021.1 1021.3 0.0
16/10:30pm 9.6 6.0 5.0 73 2.1 WNW 13 20 7 11 1021.2 1021.4 0.0
16/10:00pm 10.4 5.4 4.8 68 2.6 NW 20 26 11 14 1021.6 1021.7 0.0
16/09:30pm 10.4 6.7 4.3 66 2.8 NW 13 17 7 9 1021.3 1021.5 0.0
16/09:00pm 10.2 6.5 4.4 67 2.6 NNW 13 17 7 9 1021.2 1021.4 0.0
16/08:30pm 10.0 7.0 4.0 66 2.7 N 9 13 5 7 1021.0 1021.2 0.0
16/08:00pm 10.1 6.7 3.8 65 2.8 N 11 19 6 10 1021.1 1021.3 0.0
16/07:30pm 10.2 6.4 3.9 65 2.9 NW 13 17 7 9 1020.9 1021.1 0.0
16/07:00pm 10.3 4.8 4.0 65 2.9 NW 22 26 12 14 1020.9 1021.1 0.0
16/06:30pm 10.4 5.2 3.7 63 3.0 NW 20 26 11 14 1020.7 1020.9 0.0
16/06:00pm 10.2 5.1 3.9 65 2.8 NW 20 28 11 15 1020.5 1020.6 0.0
16/05:30pm 10.2 5.1 4.1 66 2.8 WNW 20 26 11 14 1020.4 1020.5 0.0
16/05:00pm 10.5 3.8 3.5 62 3.1 WNW 28 39 15 21 1020.2 1020.3 0.0
16/04:30pm 11.4 3.7 3.4 58 3.6 WNW 33 52 18 28 1020.1 1020.2 0.0
16/04:24pm 11.4 3.9 3.4 58 3.6 WNW 32 50 17 27 1020.0 1020.1 0.0
16/04:00pm 10.9 5.0 3.9 62 3.2 W 24 37 13 20 1019.9 1020.0 0.0
16/03:30pm 12.8 8.3 4.3 56 4.0 W 17 28 9 15 1019.9 1020.0 0.0
16/03:00pm 12.5 6.3 4.5 58 3.7 W 26 43 14 23 1019.8 1019.9 0.0
16/02:57pm 12.2 4.7 4.4 59 3.6 WNW 33 48 18 26 1019.8 1019.9 0.0
16/02:49pm 11.8 5.1 3.8 58 3.7 W 28 48 15 26 1019.5 1019.6 0.0
16/02:30pm 13.2 7.1 4.9 57 3.9 WSW 26 37 14 20 1019.8 1019.9 0.0
16/02:00pm 13.2 7.3 3.8 53 4.3 W 24 39 13 21 1019.3 1019.4 0.0
16/01:30pm 13.5 8.1 4.6 55 4.2 W 22 39 12 21 1019.1 1019.3 0.0
16/01:00pm 13.5 8.5 4.6 55 4.2 W 20 37 11 20 1019.0 1019.2 0.0
16/12:30pm 13.4 7.6 4.6 55 4.2 W 24 35 13 19 1019.1 1019.3 0.0
16/12:04pm 13.1 6.4 3.7 53 4.3 W 28 46 15 25 1019.1 1019.3 0.0
16/12:00pm 13.2 7.4 4.6 56 4.0 W 24 39 13 21 1019.0 1019.2 0.0
16/11:30am 12.3 5.7 4.0 57 3.8 WSW 28 41 15 22 1019.6 1019.7 0.0
16/11:00am 11.2 5.2 3.5 59 3.5 W 24 35 13 19 1019.6 1019.7 0.0
16/10:30am 12.0 7.0 4.5 60 3.5 W 20 32 11 17 1019.4 1019.5 0.0
16/10:00am 11.5 6.1 4.7 63 3.2 W 22 37 12 20 1019.5 1019.6 0.0
16/09:30am 11.2 6.9 7.1 76 2.0 WSW 19 28 10 15 1019.5 1019.6 0.0
16/09:00am 10.2 5.8 7.4 83 1.4 SW 20 30 11 16 1019.4 1019.5 0.2
16/08:30am 10.6 6.6 8.2 85 1.2 WSW 19 26 10 14 1018.9 1019.1 0.2
16/08:00am 10.6 7.9 8.9 89 0.9 WSW 13 20 7 11 1018.6 1018.7 0.2
16/07:30am 10.3 7.5 8.6 89 0.9 WSW 13 19 7 10 1017.7 1017.8 0.2
16/07:00am 10.0 7.5 8.3 89 0.8 WSW 11 20 6 11 1017.3 1017.4 0.2

Other Formats:

Comma delimited format used in spreadsheet applications
http://www.bom.gov.au/fwo/IDT60801/IDT60801.94960.axf

JavaScript Object Notation format (JSON) in row-major order
http://www.bom.gov.au/fwo/IDT60801/IDT60801.94960.json